Detall de PIREP

Printer-friendly versionPDF version

[2014/05/30 09:18:00]
Flight IATA:CT2312
Pilot Number:042
Company ICAO:CAT
Aircraft Type:F100/A
PAX:49
Aircraft Registration:PFJ
Departing Airport: LIEA
Destination Airport: LIBP
Alternate Airport:LIRA
Online: VATSIM
Route:MINKA UL5 ATRUP
Flight Level:F250
No Slew and time accel
No pause
Crash detect
Detect pilot in Cockpit between each 30 and 45 minutes
09:18 Zero fuel Weight: 81825 Lbs, Fuel Weight: 22654 Lbs
09:18 VATSIM:LIEA 300850Z 28010G20KT 9999 SCT018 21/15 Q1016
09:18 VATSIM:LIBP 300750Z 32007KT 9999 SCT080 22/12 Q1012
09:22 Parking Brakes off
09:27 Take-off
09:27 Take off Weight: 103933 Lbs
09:27 Wind: 279º @ 010 Knots Heading: 206º
09:27 POS N40º 37´ 34´´ E008º 17´ 14´´
09:27 Gear Up: 174 Knots
09:27 Flaps:2 at 174 Knots
09:27 Flaps:1 at 181 Knots
09:27 Flaps:0 at 191 Knots
09:41 TOC
09:41 Fuel Weight: 19965 Lb
09:41 TOD
09:41 Fuel Weight: 19963 Lb
09:41 TOC
09:41 Fuel Weight: 19954 Lb
09:42 Wind:234º@040 Knots Heading: 069º Ground Speed: 474 Knots Altitude 24852 ft
09:57 Wind:308º@020 Knots Heading: 057º Ground Speed: 471 Knots Altitude 24990 ft
10:00 TOD
10:00 Fuel Weight: 18130 Lb
10:12 Wind:008º@015 Knots Heading: 058º Ground Speed: 217 Knots Altitude 6305 ft
10:14 Flaps:1 at 185 Knots
10:14 Flaps:2 at 185 Knots
10:14 Gear Down: 188 Knots
10:14 Flaps:3 at 188 Knots
10:17 TouchDown:Rate -139 ft/min Speed: 147 Knots
10:18 VATSIM:LIBP 300950Z 01007KT 9999 FEW070 22/12 Q1013
10:18 Land
10:18 Wind:009º@007 Knots
10:18 Heading: 215º
10:18 Flight Duration: 00:51
10:18 Landing Weight: 98661 Lbs
10:18 POS N42º 25´ 36´´ E014º 10´ 41´´
10:18 Parking brakes on
10:18 Block to Block Duration: 00:56
10:18 Final Fuel: 16794 Lbls
10:18 Spent Fuel: 5859 Lbls
10:18 Flight Length: 323 NM
10:18 TOD Land Length: 85 NM

Exportar CSV

Powered by Drupal - Modified by Danger4k